Time;durP1;ratioP1;P1;durP2;ratioP2;P2;SDS_P1;SDS_P2;PMS_P1;PMS_P2;Temp;Humidity;BMP_temperature;BMP_pressure;BME280_temperature;BME280_humidity;BME280_pressure;Samples;Min_cycle;Max_cycle;Signal;HPM_P1;HPM_P2
2023/12/31 00:00:34;;;;;;;10.85;4.50;;;8.50;99.90;;;;;;6181693;23;20160;-67
2023/12/31 00:03:00;;;;;;;9.88;4.78;;;8.50;99.90;;;;;;6181137;23;20431;-66
2023/12/31 00:05:27;;;;;;;9.00;4.90;;;8.50;99.90;;;;;;6181965;23;20019;-66
2023/12/31 00:07:52;;;;;;;8.35;4.50;;;8.50;99.90;;;;;;6177959;23;20016;-66
2023/12/31 00:10:18;;;;;;;10.95;4.63;;;8.60;99.90;;;;;;6181605;23;20017;-66
2023/12/31 00:12:44;;;;;;;8.25;4.25;;;8.50;99.90;;;;;;6180586;23;20448;-67
2023/12/31 00:15:10;;;;;;;7.07;4.50;;;8.60;99.90;;;;;;6180946;23;20021;-66
2023/12/31 00:17:36;;;;;;;8.00;4.38;;;8.50;99.90;;;;;;6154075;23;20013;-66
2023/12/31 00:20:03;;;;;;;9.40;4.78;;;8.60;99.90;;;;;;6181462;23;20147;-66
2023/12/31 00:22:29;;;;;;;9.18;4.50;;;8.60;99.90;;;;;;6153852;23;20044;-66
2023/12/31 00:24:55;;;;;;;9.02;4.43;;;8.50;99.90;;;;;;6180772;23;20400;-66
2023/12/31 00:27:21;;;;;;;9.30;4.85;;;8.50;99.90;;;;;;6154197;23;20353;-64
2023/12/31 00:29:48;;;;;;;6.93;4.35;;;8.50;99.90;;;;;;6181503;23;20017;-65
2023/12/31 00:32:14;;;;;;;8.82;4.40;;;8.50;99.90;;;;;;6180205;23;20017;-64
2023/12/31 00:34:40;;;;;;;6.07;4.22;;;8.50;99.90;;;;;;6181158;23;20021;-64
2023/12/31 00:37:05;;;;;;;7.72;4.47;;;8.50;99.90;;;;;;6181428;23;20461;-64
2023/12/31 00:39:31;;;;;;;10.70;4.53;;;8.50;99.90;;;;;;6181559;23;20346;-64
2023/12/31 00:41:57;;;;;;;8.80;4.72;;;8.40;99.90;;;;;;6180004;23;20088;-65
2023/12/31 00:44:22;;;;;;;5.32;3.85;;;8.40;99.90;;;;;;6155414;23;20021;-65
2023/12/31 00:46:48;;;;;;;8.85;4.40;;;8.40;99.90;;;;;;6180850;23;20031;-65
2023/12/31 00:49:14;;;;;;;6.25;3.80;;;8.50;99.90;;;;;;6154515;23;20025;-64
2023/12/31 00:51:39;;;;;;;8.48;3.88;;;8.40;99.90;;;;;;6153827;23;20392;-65
2023/12/31 00:54:05;;;;;;;9.32;3.75;;;8.40;99.90;;;;;;6180667;23;20016;-65
2023/12/31 00:56:31;;;;;;;7.70;3.80;;;8.40;99.90;;;;;;6180344;23;20016;-65
2023/12/31 00:58:56;;;;;;;5.32;3.25;;;8.40;99.90;;;;;;6181188;23;20145;-64
2023/12/31 01:01:22;;;;;;;5.82;3.13;;;8.50;99.90;;;;;;6180979;23;20461;-65
2023/12/31 01:03:48;;;;;;;6.93;3.40;;;8.50;99.90;;;;;;6180090;23;20088;-64
2023/12/31 01:06:13;;;;;;;6.85;4.05;;;8.40;99.90;;;;;;6180770;23;20020;-64
2023/12/31 01:08:39;;;;;;;7.53;2.92;;;8.40;99.90;;;;;;6178556;23;20460;-65
2023/12/31 01:11:07;;;;;;;4.57;3.00;;;8.40;99.90;;;;;;6181271;23;20352;-65
2023/12/31 01:13:32;;;;;;;6.10;3.35;;;8.50;99.90;;;;;;6181497;23;20025;-65
2023/12/31 01:15:58;;;;;;;6.60;2.97;;;8.40;99.90;;;;;;6180673;23;20021;-65
2023/12/31 01:18:24;;;;;;;5.38;3.20;;;8.40;99.90;;;;;;6179798;23;20029;-65
2023/12/31 01:20:50;;;;;;;7.55;4.03;;;8.50;99.90;;;;;;6181496;23;20072;-65
2023/12/31 01:23:15;;;;;;;6.85;3.47;;;8.50;99.90;;;;;;6181592;23;20028;-65
2023/12/31 01:25:42;;;;;;;6.80;3.40;;;8.50;99.90;;;;;;6182787;23;20489;-65
2023/12/31 01:28:08;;;;;;;6.03;3.10;;;8.50;99.90;;;;;;6182689;23;20071;-65
2023/12/31 01:30:33;;;;;;;6.45;3.40;;;8.50;99.90;;;;;;6183666;23;20075;-65
2023/12/31 01:32:59;;;;;;;5.40;3.25;;;8.40;99.90;;;;;;6155774;23;20055;-65
2023/12/31 01:35:25;;;;;;;5.35;3.40;;;8.50;99.90;;;;;;6183596;23;20021;-65
2023/12/31 01:37:50;;;;;;;6.80;2.95;;;8.50;99.90;;;;;;6183307;23;20127;-65
2023/12/31 01:40:16;;;;;;;7.43;3.20;;;8.50;99.90;;;;;;6183188;23;20492;-65
2023/12/31 01:42:44;;;;;;;4.40;2.80;;;8.50;99.90;;;;;;6156351;23;20053;-65
2023/12/31 01:45:10;;;;;;;6.88;2.85;;;8.50;99.90;;;;;;6131859;23;20445;-65
2023/12/31 01:47:37;;;;;;;4.95;2.75;;;8.50;99.90;;;;;;6182172;23;20097;-65
2023/12/31 01:50:04;;;;;;;6.25;2.70;;;8.40;99.90;;;;;;6156519;23;20019;-65
2023/12/31 01:52:31;;;;;;;5.47;2.90;;;8.40;99.90;;;;;;6155815;23;20559;-65
2023/12/31 01:55:01;;;;;;;7.60;3.40;;;8.40;99.90;;;;;;6156559;23;20013;-65
2023/12/31 01:57:29;;;;;;;5.60;3.50;;;8.40;99.90;;;;;;6182597;23;20013;-65
2023/12/31 01:59:59;;;;;;;5.65;2.83;;;8.30;99.90;;;;;;6157111;23;20406;-65
2023/12/31 02:02:25;;;;;;;5.13;2.92;;;8.40;99.90;;;;;;6181872;23;20021;-65
2023/12/31 02:04:51;;;;;;;5.57;2.75;;;8.30;99.90;;;;;;6182490;23;20015;-65
2023/12/31 02:07:18;;;;;;;6.45;2.95;;;8.40;99.90;;;;;;6179108;23;20419;-65
2023/12/31 02:09:44;;;;;;;9.10;3.17;;;8.30;99.90;;;;;;6156531;23;20450;-65
2023/12/31 02:12:10;;;;;;;4.07;2.38;;;8.30;99.90;;;;;;6180878;23;20021;-65
2023/12/31 02:14:35;;;;;;;4.70;3.15;;;8.30;99.90;;;;;;6155339;23;20028;-65
2023/12/31 02:17:01;;;;;;;3.95;2.40;;;8.30;99.90;;;;;;6181614;23;20075;-65
2023/12/31 02:19:27;;;;;;;5.43;2.60;;;8.30;99.90;;;;;;6154487;23;20085;-65
2023/12/31 02:21:53;;;;;;;6.03;3.05;;;8.20;99.90;;;;;;6180231;23;20023;-65
2023/12/31 02:24:20;;;;;;;3.80;2.35;;;8.20;99.90;;;;;;6182805;23;20017;-66
2023/12/31 02:26:46;;;;;;;6.45;2.28;;;8.20;99.90;;;;;;6156523;23;20052;-65
2023/12/31 02:29:11;;;;;;;5.07;2.90;;;8.10;99.90;;;;;;6155526;23;20418;-66
2023/12/31 02:31:37;;;;;;;7.57;2.80;;;8.10;99.90;;;;;;6182401;23;20032;-65
2023/12/31 02:34:03;;;;;;;5.80;2.58;;;8.10;99.90;;;;;;6130206;23;20344;-66
2023/12/31 02:36:29;;;;;;;5.78;2.55;;;8.10;99.90;;;;;;6181725;23;20080;-66
2023/12/31 02:38:54;;;;;;;5.65;3.33;;;8.10;99.90;;;;;;6182079;23;20496;-66
2023/12/31 02:41:20;;;;;;;7.43;3.08;;;8.10;99.90;;;;;;6182423;23;20055;-66
2023/12/31 02:43:46;;;;;;;4.60;2.75;;;8.10;99.90;;;;;;6155911;23;20021;-66
2023/12/31 02:46:11;;;;;;;5.57;2.65;;;8.10;99.90;;;;;;6155565;23;20017;-66
2023/12/31 02:48:37;;;;;;;4.00;2.45;;;8.10;99.90;;;;;;6181072;23;20086;-65
2023/12/31 02:51:03;;;;;;;3.22;2.30;;;8.10;99.90;;;;;;6182879;23;20071;-66
2023/12/31 02:53:29;;;;;;;5.18;2.55;;;8.10;99.90;;;;;;6154563;23;20073;-65
2023/12/31 02:55:54;;;;;;;6.22;2.53;;;8.10;99.90;;;;;;6155159;23;20021;-66
2023/12/31 02:58:20;;;;;;;3.17;2.00;;;8.20;99.90;;;;;;6182487;23;20013;-66
2023/12/31 03:00:46;;;;;;;4.00;2.40;;;8.20;99.90;;;;;;6155026;23;20456;-66
2023/12/31 03:03:11;;;;;;;4.40;2.30;;;8.20;99.90;;;;;;6180406;23;20021;-65
2023/12/31 03:05:37;;;;;;;5.43;2.28;;;8.20;99.90;;;;;;6181734;23;20057;-66
2023/12/31 03:08:03;;;;;;;4.10;2.08;;;8.10;99.90;;;;;;6151987;23;20021;-66
2023/12/31 03:10:28;;;;;;;4.72;2.10;;;8.10;99.90;;;;;;6155928;23;20028;-66
2023/12/31 03:12:54;;;;;;;6.32;2.30;;;8.10;99.90;;;;;;6155221;23;20492;-66
2023/12/31 03:15:20;;;;;;;4.00;1.75;;;8.10;99.90;;;;;;6154485;23;20020;-66
2023/12/31 03:17:46;;;;;;;5.93;2.20;;;8.10;99.90;;;;;;6180188;23;20430;-68
2023/12/31 03:20:11;;;;;;;7.20;2.20;;;8.10;99.90;;;;;;6156378;23;20009;-66
2023/12/31 03:22:37;;;;;;;4.28;2.10;;;8.10;99.90;;;;;;6182165;23;20463;-66
2023/12/31 03:25:04;;;;;;;3.70;2.10;;;8.10;99.90;;;;;;6155317;23;20020;-66
2023/12/31 03:27:30;;;;;;;4.40;2.35;;;8.10;99.90;;;;;;6154960;23;20070;-65
2023/12/31 03:29:55;;;;;;;3.65;2.00;;;8.10;99.90;;;;;;6131029;23;20444;-66
2023/12/31 03:32:21;;;;;;;3.90;1.70;;;8.00;99.90;;;;;;6180448;23;20084;-66
2023/12/31 03:34:47;;;;;;;5.07;2.10;;;8.10;99.90;;;;;;6153720;23;20092;-66
2023/12/31 03:37:12;;;;;;;3.65;2.10;;;8.00;99.90;;;;;;6155350;23;20055;-66
2023/12/31 03:39:38;;;;;;;4.13;1.52;;;8.10;99.90;;;;;;6181415;23;20345;-66
2023/12/31 03:42:04;;;;;;;5.38;1.90;;;8.10;99.90;;;;;;6182002;23;20036;-66
2023/12/31 03:44:29;;;;;;;4.10;1.83;;;8.10;99.90;;;;;;6154819;23;20021;-66
2023/12/31 03:46:55;;;;;;;4.28;1.92;;;8.10;99.90;;;;;;6154477;23;20395;-66
2023/12/31 03:49:21;;;;;;;3.28;1.50;;;8.20;99.90;;;;;;6155026;23;20515;-66
2023/12/31 03:51:46;;;;;;;2.85;1.42;;;8.20;99.90;;;;;;6129489;23;20075;-65
2023/12/31 03:54:12;;;;;;;3.90;1.90;;;8.20;99.90;;;;;;6180952;23;20017;-66
2023/12/31 03:56:37;;;;;;;2.88;1.58;;;8.20;99.90;;;;;;6154526;23;20101;-65
2023/12/31 03:59:03;;;;;;;3.33;1.60;;;8.20;99.90;;;;;;6181233;23;20346;-66
2023/12/31 04:01:29;;;;;;;2.80;1.42;;;8.20;99.90;;;;;;6180179;23;20021;-66
2023/12/31 04:03:54;;;;;;;3.05;1.73;;;8.20;99.90;;;;;;6179533;23;20441;-66
2023/12/31 04:06:20;;;;;;;5.50;1.70;;;8.30;99.90;;;;;;6153570;23;20508;-66
2023/12/31 04:08:47;;;;;;;4.93;1.83;;;8.20;99.90;;;;;;6179694;23;20084;-66
2023/12/31 04:11:13;;;;;;;7.32;1.50;;;8.30;99.90;;;;;;6181774;23;20013;-65
2023/12/31 04:13:42;;;;;;;2.75;1.70;;;8.30;99.90;;;;;;6181273;23;20077;-66
2023/12/31 04:16:10;;;;;;;3.70;1.50;;;8.30;99.90;;;;;;6181310;23;20067;-66
2023/12/31 04:18:36;;;;;;;3.95;1.52;;;8.30;99.90;;;;;;6180558;23;20177;-66
2023/12/31 04:21:02;;;;;;;4.60;1.67;;;8.30;99.90;;;;;;6181356;23;20464;-66
2023/12/31 04:23:28;;;;;;;5.20;1.65;;;8.30;99.90;;;;;;6180888;23;20081;-66
2023/12/31 04:25:54;;;;;;;3.55;1.33;;;8.30;99.90;;;;;;6181252;23;20032;-66
2023/12/31 04:28:19;;;;;;;3.05;1.50;;;8.20;99.90;;;;;;6180540;23;20024;-66
2023/12/31 04:30:45;;;;;;;4.78;1.90;;;8.30;99.90;;;;;;6155505;23;20051;-66
2023/12/31 04:33:11;;;;;;;3.08;1.60;;;8.30;99.90;;;;;;6180988;23;20059;-66
2023/12/31 04:35:36;;;;;;;4.10;1.33;;;8.30;99.90;;;;;;6154501;23;20449;-66
2023/12/31 04:38:02;;;;;;;3.78;1.60;;;8.30;99.90;;;;;;6180806;23;20100;-65
2023/12/31 04:40:28;;;;;;;2.80;1.30;;;8.30;99.90;;;;;;6181164;23;20055;-65
2023/12/31 04:42:53;;;;;;;6.32;1.90;;;8.30;99.90;;;;;;6154441;23;20020;-65
2023/12/31 04:45:19;;;;;;;4.30;1.88;;;8.30;99.90;;;;;;6154043;23;20326;-65
2023/12/31 04:47:45;;;;;;;4.28;1.50;;;8.30;99.90;;;;;;6130986;23;20026;-66
2023/12/31 04:50:10;;;;;;;2.80;1.60;;;8.30;99.90;;;;;;6066883;23;20025;-65
2023/12/31 04:52:36;;;;;;;3.08;1.52;;;8.30;99.90;;;;;;6095496;23;20018;-65
2023/12/31 04:55:02;;;;;;;4.38;1.80;;;8.30;99.90;;;;;;6095752;23;20018;-66
2023/12/31 04:57:28;;;;;;;3.15;1.73;;;8.30;99.90;;;;;;6095766;23;20069;-65
2023/12/31 04:59:53;;;;;;;4.13;1.73;;;8.30;99.90;;;;;;6094874;23;20024;-65
2023/12/31 05:02:19;;;;;;;3.03;1.95;;;8.30;99.90;;;;;;6120333;23;20028;-65
2023/12/31 05:04:45;;;;;;;3.45;1.80;;;8.30;99.90;;;;;;6121617;23;20333;-65
2023/12/31 05:07:12;;;;;;;2.92;1.88;;;8.30;99.90;;;;;;6118232;23;20093;-66
2023/12/31 05:09:37;;;;;;;4.47;2.00;;;8.30;99.90;;;;;;6095491;23;20025;-66
2023/12/31 05:12:03;;;;;;;5.25;1.95;;;8.30;99.90;;;;;;6096113;23;20026;-66
2023/12/31 05:14:29;;;;;;;5.22;1.75;;;8.30;99.90;;;;;;6122385;23;20014;-66
2023/12/31 05:16:55;;;;;;;4.38;2.20;;;8.30;99.90;;;;;;6121991;23;20020;-66
2023/12/31 05:19:20;;;;;;;4.40;2.22;;;8.30;99.90;;;;;;6094860;23;20017;-66
2023/12/31 05:21:46;;;;;;;4.43;2.10;;;8.30;99.90;;;;;;6121552;23;20065;-66
2023/12/31 05:24:12;;;;;;;5.55;1.92;;;8.30;99.90;;;;;;6096416;23;20029;-65
2023/12/31 05:26:38;;;;;;;3.47;1.92;;;8.30;99.90;;;;;;6122033;23;20037;-65
2023/12/31 05:29:03;;;;;;;3.17;1.70;;;8.30;99.90;;;;;;6095284;23;20109;-66
2023/12/31 05:31:29;;;;;;;6.10;2.10;;;8.30;99.90;;;;;;6122185;23;20050;-65
2023/12/31 05:33:55;;;;;;;4.25;1.58;;;8.30;99.90;;;;;;6121416;23;20014;-66
2023/12/31 05:36:20;;;;;;;5.68;2.30;;;8.30;99.90;;;;;;6096274;23;20029;-65
2023/12/31 05:38:46;;;;;;;3.40;2.05;;;8.30;99.90;;;;;;6071095;23;20026;-66
2023/12/31 05:41:12;;;;;;;3.35;1.83;;;8.30;99.90;;;;;;6095972;23;20101;-66
2023/12/31 05:43:37;;;;;;;4.32;1.55;;;8.30;99.90;;;;;;6070881;23;20029;-65
2023/12/31 05:46:03;;;;;;;3.45;2.58;;;8.30;99.90;;;;;;6130879;23;20476;-66
2023/12/31 05:48:29;;;;;;;4.28;1.73;;;8.40;99.90;;;;;;6123258;23;20449;-66
2023/12/31 05:50:54;;;;;;;6.90;2.00;;;8.40;99.90;;;;;;6124773;23;20096;-65
2023/12/31 05:53:20;;;;;;;2.88;1.65;;;8.40;99.90;;;;;;6150596;23;20371;-66
2023/12/31 05:55:47;;;;;;;3.75;1.73;;;8.40;99.90;;;;;;6125560;23;20024;-66
2023/12/31 05:58:12;;;;;;;2.83;1.60;;;8.40;99.90;;;;;;6124331;23;20096;-66
2023/12/31 06:00:38;;;;;;;5.63;1.67;;;8.40;99.90;;;;;;6124775;23;20084;-66
2023/12/31 06:03:04;;;;;;;4.40;1.90;;;8.50;99.90;;;;;;6124307;23;20029;-66
2023/12/31 06:05:29;;;;;;;2.92;1.65;;;8.50;99.90;;;;;;6150863;23;20341;-66
2023/12/31 06:07:55;;;;;;;7.38;2.17;;;8.50;99.90;;;;;;6097106;23;20028;-66
2023/12/31 06:10:21;;;;;;;3.90;2.05;;;8.50;99.90;;;;;;6152323;23;20017;-66
2023/12/31 06:12:46;;;;;;;4.22;2.10;;;8.50;99.90;;;;;;6153589;23;20064;-66
2023/12/31 06:15:12;;;;;;;3.83;1.60;;;8.50;99.90;;;;;;6126040;23;20464;-66
2023/12/31 06:17:38;;;;;;;2.70;1.58;;;8.50;99.90;;;;;;6125938;23;20096;-66
2023/12/31 06:20:06;;;;;;;2.60;1.67;;;8.50;99.90;;;;;;6126008;23;20014;-66
2023/12/31 06:22:32;;;;;;;3.65;1.70;;;8.50;99.90;;;;;;6152236;23;20040;-65
2023/12/31 06:24:58;;;;;;;5.47;1.63;;;8.50;99.90;;;;;;6152335;23;20064;-65
2023/12/31 06:27:24;;;;;;;5.57;2.47;;;8.60;99.90;;;;;;6152637;23;20029;-65
2023/12/31 06:29:50;;;;;;;3.22;1.83;;;8.50;99.90;;;;;;6152895;23;20059;-65
2023/12/31 06:32:16;;;;;;;2.55;1.67;;;8.60;99.90;;;;;;6152477;23;20029;-65
2023/12/31 06:34:42;;;;;;;3.15;1.75;;;8.60;99.90;;;;;;6151398;23;20028;-65
2023/12/31 06:37:08;;;;;;;5.95;2.38;;;8.60;99.90;;;;;;6152802;23;20009;-66
2023/12/31 06:39:33;;;;;;;4.45;2.00;;;8.60;99.90;;;;;;6152998;23;20025;-66
2023/12/31 06:41:59;;;;;;;3.28;2.10;;;8.60;99.90;;;;;;6125535;23;20029;-66
2023/12/31 06:44:25;;;;;;;4.93;1.80;;;8.60;99.90;;;;;;6125669;23;20028;-65
2023/12/31 06:46:51;;;;;;;3.33;1.80;;;8.70;99.90;;;;;;6151636;23;20022;-66
2023/12/31 06:49:17;;;;;;;4.57;2.13;;;8.70;99.90;;;;;;6151941;23;20017;-66
2023/12/31 06:51:43;;;;;;;4.13;2.05;;;8.70;99.90;;;;;;6152011;23;20017;-65
2023/12/31 06:54:08;;;;;;;5.28;2.50;;;8.70;99.90;;;;;;6152105;23;20089;-65
2023/12/31 06:56:34;;;;;;;5.70;2.50;;;8.80;99.90;;;;;;6125926;23;20009;-65
2023/12/31 06:59:00;;;;;;;4.35;2.53;;;8.70;99.90;;;;;;6152353;23;20128;-65
2023/12/31 07:01:25;;;;;;;6.47;2.90;;;8.70;99.90;;;;;;6125430;23;20710;-65
2023/12/31 07:03:51;;;;;;;9.15;2.90;;;8.80;99.90;;;;;;6150939;23;20104;-65
2023/12/31 07:06:17;;;;;;;5.03;2.60;;;8.80;99.90;;;;;;6150504;23;20022;-65
2023/12/31 07:08:42;;;;;;;3.90;2.20;;;8.70;99.90;;;;;;6148752;23;20446;-65
2023/12/31 07:11:09;;;;;;;6.03;3.22;;;8.70;99.90;;;;;;6152013;23;20024;-65
2023/12/31 07:13:36;;;;;;;5.15;3.20;;;8.70;99.90;;;;;;6151489;23;20025;-65
2023/12/31 07:16:02;;;;;;;7.30;3.83;;;8.70;99.90;;;;;;6151942;23;20017;-65
2023/12/31 07:18:27;;;;;;;8.00;4.90;;;8.60;99.90;;;;;;6124709;23;20596;-65
2023/12/31 07:20:54;;;;;;;8.55;4.68;;;8.60;99.90;;;;;;6101252;23;20076;-65
2023/12/31 07:23:20;;;;;;;6.75;4.53;;;8.60;99.90;;;;;;6124993;23;20031;-65
2023/12/31 07:25:46;;;;;;;7.47;3.95;;;8.60;99.90;;;;;;6152914;23;20096;-65
2023/12/31 07:28:12;;;;;;;6.72;3.58;;;8.60;99.90;;;;;;6151418;23;20096;-65
2023/12/31 07:30:39;;;;;;;5.22;3.30;;;8.60;99.90;;;;;;6151014;23;20416;-65
2023/12/31 07:33:05;;;;;;;7.03;4.07;;;8.60;99.90;;;;;;6124033;23;20089;-65
2023/12/31 07:35:34;;;;;;;5.60;3.60;;;8.60;99.90;;;;;;6125096;23;20028;-65
2023/12/31 07:38:01;;;;;;;10.43;5.57;;;8.60;99.90;;;;;;6124196;23;20448;-65
2023/12/31 07:40:26;;;;;;;11.77;5.10;;;8.60;99.90;;;;;;6124501;23;20104;-65
2023/12/31 07:42:52;;;;;;;11.68;6.07;;;8.60;99.90;;;;;;6150510;23;20056;-65
2023/12/31 07:45:18;;;;;;;4.72;3.00;;;8.60;99.90;;;;;;6151153;23;20021;-66
2023/12/31 07:47:43;;;;;;;5.22;3.40;;;8.60;99.90;;;;;;6149888;23;20052;-66
2023/12/31 07:50:09;;;;;;;6.55;3.15;;;8.60;99.90;;;;;;6124227;23;20378;-66
2023/12/31 07:52:36;;;;;;;10.43;3.20;;;8.60;99.90;;;;;;6123759;23;20028;-66
2023/12/31 07:55:03;;;;;;;5.43;3.30;;;8.60;99.90;;;;;;6123916;23;20052;-66
2023/12/31 07:57:29;;;;;;;6.00;3.38;;;8.70;99.90;;;;;;6124208;23;20044;-66
2023/12/31 07:59:55;;;;;;;5.95;3.13;;;8.70;99.90;;;;;;6150520;23;20695;-66
2023/12/31 08:02:20;;;;;;;5.68;3.00;;;8.70;99.90;;;;;;6149675;23;20028;-66
2023/12/31 08:04:46;;;;;;;5.28;2.70;;;8.70;99.90;;;;;;6150412;23;20084;-66
2023/12/31 08:07:12;;;;;;;6.95;3.25;;;8.70;99.90;;;;;;6120955;23;20468;-66
2023/12/31 08:09:38;;;;;;;4.80;2.80;;;8.70;99.90;;;;;;6151308;23;20023;-66
2023/12/31 08:12:04;;;;;;;4.80;2.80;;;8.70;99.90;;;;;;6150701;23;20017;-66
2023/12/31 08:14:30;;;;;;;4.80;2.95;;;8.70;99.90;;;;;;6151584;23;20063;-66
2023/12/31 08:16:56;;;;;;;4.53;2.83;;;8.70;99.90;;;;;;6151967;23;20023;-66
2023/12/31 08:19:22;;;;;;;4.30;2.88;;;8.70;99.90;;;;;;6150392;23;20100;-67
2023/12/31 08:21:47;;;;;;;5.70;2.92;;;8.80;99.90;;;;;;6152036;23;20044;-66
2023/12/31 08:24:19;;;;;;;8.38;3.22;;;8.80;99.90;;;;;;6150762;23;20056;-66
2023/12/31 08:26:45;;;;;;;4.53;3.05;;;8.70;99.90;;;;;;6149373;23;20072;-66
2023/12/31 08:29:11;;;;;;;5.43;2.70;;;8.80;99.90;;;;;;6151263;23;20484;-66
2023/12/31 08:31:37;;;;;;;5.38;3.35;;;8.80;99.90;;;;;;6150397;23;20014;-67
2023/12/31 08:34:03;;;;;;;5.32;2.95;;;8.80;99.90;;;;;;6150087;23;20018;-66
2023/12/31 08:36:29;;;;;;;4.00;2.95;;;8.80;99.90;;;;;;6150909;23;20013;-67
2023/12/31 08:38:55;;;;;;;5.68;3.15;;;8.80;99.90;;;;;;6123951;23;20472;-66
2023/12/31 08:41:21;;;;;;;7.05;3.28;;;8.80;99.90;;;;;;6123160;23;20080;-66
2023/12/31 08:43:47;;;;;;;6.18;3.28;;;8.90;99.90;;;;;;6124628;23;20033;-66
2023/12/31 08:46:13;;;;;;;7.68;3.20;;;8.90;99.90;;;;;;6124510;23;20396;-66
2023/12/31 08:48:38;;;;;;;6.13;2.90;;;8.90;99.90;;;;;;6098748;23;20022;-65
2023/12/31 08:51:04;;;;;;;5.05;3.05;;;8.90;99.90;;;;;;6149915;23;20013;-66
2023/12/31 08:53:30;;;;;;;5.47;3.00;;;8.90;99.90;;;;;;6124136;23;20361;-67
2023/12/31 08:55:55;;;;;;;6.32;2.85;;;8.90;99.90;;;;;;6150438;23;20092;-67
2023/12/31 08:58:21;;;;;;;5.50;3.08;;;8.90;99.90;;;;;;6150981;23;20024;-67
2023/12/31 09:00:47;;;;;;;7.70;3.08;;;8.90;99.90;;;;;;6125071;23;20032;-67
2023/12/31 09:03:17;;;;;;;4.22;2.85;;;8.90;99.90;;;;;;6150345;23;20017;-65
2023/12/31 09:05:43;;;;;;;6.75;3.45;;;8.90;99.90;;;;;;6150543;23;20056;-67
2023/12/31 09:08:08;;;;;;;4.80;3.00;;;8.90;99.90;;;;;;6145826;23;20029;-66
2023/12/31 09:10:35;;;;;;;4.60;3.20;;;8.90;99.90;;;;;;6150800;23;20092;-65
2023/12/31 09:13:02;;;;;;;5.18;3.58;;;8.90;99.90;;;;;;6124394;23;20354;-65
2023/12/31 09:15:28;;;;;;;4.82;2.88;;;8.90;99.90;;;;;;6151720;23;20018;-65
2023/12/31 09:17:54;;;;;;;7.88;4.63;;;8.90;99.90;;;;;;6151851;23;20480;-66
2023/12/31 09:20:21;;;;;;;7.75;4.25;;;8.80;99.90;;;;;;6125087;23;20024;-66
2023/12/31 09:22:50;;;;;;;6.05;3.88;;;8.90;99.90;;;;;;6149807;23;20025;-66
2023/12/31 09:25:16;;;;;;;6.78;3.45;;;8.80;99.90;;;;;;6150716;23;20014;-66
2023/12/31 09:27:41;;;;;;;7.00;3.65;;;8.80;99.90;;;;;;6121830;23;20093;-66
2023/12/31 09:30:08;;;;;;;4.95;3.38;;;8.80;99.90;;;;;;6123158;23;20022;-66
2023/12/31 09:32:33;;;;;;;7.65;3.50;;;8.80;99.90;;;;;;6099425;23;20030;-66
2023/12/31 09:34:59;;;;;;;6.13;3.90;;;8.70;99.90;;;;;;6123043;23;20113;-66
2023/12/31 09:37:25;;;;;;;7.25;3.60;;;8.70;99.90;;;;;;6148997;23;20033;-68
2023/12/31 09:39:50;;;;;;;6.68;4.03;;;8.80;99.90;;;;;;6150737;23;20021;-68
2023/12/31 09:42:20;;;;;;;5.65;3.15;;;8.70;99.90;;;;;;6148888;23;20509;-67
2023/12/31 09:44:49;;;;;;;6.95;4.00;;;8.70;99.90;;;;;;6150217;23;20465;-66
2023/12/31 09:47:14;;;;;;;6.82;3.63;;;8.70;99.90;;;;;;6151377;23;20025;-67
2023/12/31 09:49:41;;;;;;;6.47;3.60;;;8.70;99.90;;;;;;6153334;23;20018;-67
2023/12/31 09:52:08;;;;;;;5.53;3.75;;;8.70;99.90;;;;;;6152635;23;20048;-67
2023/12/31 09:54:40;;;;;;;5.30;3.47;;;8.80;99.90;;;;;;6152975;23;20025;-67
2023/12/31 09:57:07;;;;;;;7.32;3.58;;;8.80;99.90;;;;;;6100278;23;20537;-67
2023/12/31 09:59:33;;;;;;;5.65;3.95;;;8.80;99.90;;;;;;6152784;23;20024;-66
2023/12/31 10:02:02;;;;;;;8.52;4.60;;;8.90;99.90;;;;;;6151499;23;20021;-66
2023/12/31 10:04:28;;;;;;;6.63;4.28;;;8.90;99.90;;;;;;6151689;23;20013;-66
2023/12/31 10:06:55;;;;;;;7.80;3.95;;;8.90;99.90;;;;;;6149889;23;20017;-67
2023/12/31 10:09:28;;;;;;;7.90;3.75;;;8.90;99.90;;;;;;6150779;23;20092;-67
2023/12/31 10:11:54;;;;;;;7.18;3.63;;;8.90;99.90;;;;;;6151350;23;20067;-66
2023/12/31 10:14:21;;;;;;;6.95;3.55;;;9.00;99.90;;;;;;6124684;23;20458;-67
2023/12/31 10:16:47;;;;;;;7.63;3.65;;;9.00;99.90;;;;;;6124954;23;20024;-66
2023/12/31 10:19:14;;;;;;;5.20;3.22;;;9.00;99.90;;;;;;6124831;23;20021;-66
2023/12/31 10:21:41;;;;;;;6.35;3.80;;;9.00;99.90;;;;;;6125576;23;20101;-67
2023/12/31 10:24:08;;;;;;;7.22;4.13;;;9.10;99.90;;;;;;6150457;23;20022;-68
2023/12/31 10:26:34;;;;;;;6.32;3.60;;;9.10;99.90;;;;;;6124607;23;20029;-68
2023/12/31 10:29:01;;;;;;;6.57;3.20;;;9.10;99.90;;;;;;6152963;23;20036;-69
2023/12/31 10:31:27;;;;;;;6.50;4.03;;;9.20;99.90;;;;;;6126548;23;20354;-67
2023/12/31 10:33:53;;;;;;;6.95;4.00;;;9.20;99.90;;;;;;6125197;23;20516;-66
2023/12/31 10:36:23;;;;;;;6.22;3.67;;;9.20;99.90;;;;;;6124757;23;20021;-65
2023/12/31 10:38:50;;;;;;;7.88;4.53;;;9.20;99.90;;;;;;6153316;23;20044;-67
2023/12/31 10:41:21;;;;;;;7.63;4.97;;;9.20;99.90;;;;;;6152133;23;20022;-66
2023/12/31 10:43:48;;;;;;;6.30;4.38;;;9.20;99.90;;;;;;6150722;23;20064;-67
2023/12/31 10:46:15;;;;;;;5.38;3.70;;;9.10;99.90;;;;;;6152290;23;20018;-67
2023/12/31 10:49:01;;;;;;;7.90;4.43;;;9.10;99.90;;;;;;6150756;23;20072;-67
2023/12/31 10:51:27;;;;;;;5.45;2.45;;;9.00;99.90;;;;;;6151179;23;20025;-68
2023/12/31 10:54:02;;;;;;;6.75;2.28;;;8.90;99.90;;;;;;6152089;23;20093;-67
2023/12/31 10:56:28;;;;;;;5.68;1.92;;;8.70;99.90;;;;;;6151658;23;20026;-67
2023/12/31 10:58:54;;;;;;;3.20;1.38;;;8.60;99.90;;;;;;6125244;23;20030;-66
2023/12/31 11:01:25;;;;;;;5.28;1.95;;;8.50;99.90;;;;;;6125570;23;20473;-66
2023/12/31 11:03:56;;;;;;;5.80;2.05;;;8.40;99.90;;;;;;6126189;23;20025;-66
2023/12/31 11:06:23;;;;;;;5.28;1.90;;;8.30;99.90;;;;;;6123867;23;20044;-67
2023/12/31 11:08:49;;;;;;;4.20;1.48;;;8.20;99.90;;;;;;6149107;23;20172;-66
2023/12/31 11:11:18;;;;;;;5.05;1.25;;;8.20;99.90;;;;;;6149772;23;20096;-65
2023/12/31 11:13:53;;;;;;;5.07;1.80;;;8.20;99.90;;;;;;6150791;23;20021;-67
2023/12/31 11:16:25;;;;;;;4.57;1.40;;;8.10;99.90;;;;;;6151226;23;20052;-67
2023/12/31 11:19:10;;;;;;;3.25;1.10;;;8.10;99.90;;;;;;6152360;23;20018;-66
2023/12/31 11:22:03;;;;;;;3.60;1.08;;;8.10;99.90;;;;;;6152017;23;20088;-67
2023/12/31 11:24:29;;;;;;;3.83;1.03;;;8.10;99.90;;;;;;6151842;23;20021;-66
2023/12/31 11:27:07;;;;;;;3.65;1.02;;;8.10;99.90;;;;;;6099654;23;20076;-67
2023/12/31 11:29:33;;;;;;;5.38;1.58;;;8.10;99.90;;;;;;6150715;23;20105;-67
2023/12/31 11:31:58;;;;;;;4.22;1.02;;;8.10;99.90;;;;;;6126051;23;20037;-67
2023/12/31 11:34:24;;;;;;;4.82;1.23;;;8.10;99.90;;;;;;6151818;23;20029;-66
2023/12/31 11:36:54;;;;;;;4.10;1.25;;;8.10;99.90;;;;;;6125262;23;20021;-66
2023/12/31 11:39:23;;;;;;;2.80;0.90;;;8.10;99.90;;;;;;6151533;23;20033;-66
2023/12/31 11:41:54;;;;;;;3.70;1.77;;;8.20;99.90;;;;;;6148715;23;20064;-66
2023/12/31 11:44:40;;;;;;;3.15;1.00;;;8.30;99.90;;;;;;6150434;23;20018;-66
2023/12/31 11:47:16;;;;;;;5.82;1.60;;;8.40;99.90;;;;;;6150945;23;20056;-67
2023/12/31 11:50:18;;;;;;;15.32;9.77;;;8.50;99.90;;;;;;6151679;23;20022;-67
2023/12/31 11:52:43;;;;;;;6.65;2.60;;;8.60;99.90;;;;;;6151340;23;20623;-66
2023/12/31 11:55:15;;;;;;;3.00;1.60;;;8.60;99.90;;;;;;6152178;23;20075;-67
2023/12/31 11:57:43;;;;;;;2.13;1.10;;;8.60;99.90;;;;;;6150622;23;20028;-67
2023/12/31 12:00:11;;;;;;;2.22;1.20;;;8.70;99.90;;;;;;6152481;23;20017;-66
2023/12/31 12:02:37;;;;;;;3.72;1.50;;;8.70;99.90;;;;;;6151152;23;20096;-67
2023/12/31 12:05:04;;;;;;;5.28;1.40;;;8.70;99.90;;;;;;6151812;23;20018;-66
2023/12/31 12:07:30;;;;;;;4.78;1.35;;;8.70;99.90;;;;;;6147794;23;20542;-66
2023/12/31 12:09:55;;;;;;;6.50;1.70;;;8.70;99.90;;;;;;6151860;23;20029;-65
2023/12/31 12:12:22;;;;;;;2.75;1.30;;;8.70;99.90;;;;;;6149747;23;20025;-66
2023/12/31 12:14:51;;;;;;;3.75;1.13;;;8.60;99.90;;;;;;6150678;23;20013;-66
2023/12/31 12:17:17;;;;;;;3.63;1.70;;;8.60;99.90;;;;;;6151807;23;20021;-67
2023/12/31 12:19:43;;;;;;;6.30;1.50;;;8.60;99.90;;;;;;6150958;23;20079;-67
2023/12/31 12:22:08;;;;;;;3.22;2.03;;;8.60;99.90;;;;;;6125367;23;20481;-67
2023/12/31 12:24:35;;;;;;;4.18;1.48;;;8.60;99.90;;;;;;6125294;23;20021;-68
2023/12/31 12:27:01;;;;;;;4.50;1.20;;;8.60;99.90;;;;;;6149959;23;20025;-67
2023/12/31 12:29:27;;;;;;;5.90;2.20;;;8.60;99.90;;;;;;6099984;23;20017;-67
2023/12/31 12:31:53;;;;;;;2.70;1.50;;;8.70;99.90;;;;;;6124995;23;20113;-66
2023/12/31 12:34:19;;;;;;;3.60;1.60;;;8.70;99.90;;;;;;6123739;23;20021;-65
2023/12/31 12:36:48;;;;;;;5.88;1.85;;;8.70;99.90;;;;;;6124291;23;20057;-67
2023/12/31 12:39:20;;;;;;;5.35;2.40;;;8.60;99.90;;;;;;6151012;23;20030;-67
2023/12/31 12:41:48;;;;;;;5.00;1.60;;;8.60;99.90;;;;;;6150801;23;20025;-66
2023/12/31 12:44:15;;;;;;;3.90;1.63;;;8.50;99.90;;;;;;6150982;23;20033;-66
2023/12/31 12:46:42;;;;;;;3.25;1.67;;;8.50;99.90;;;;;;6150765;23;20017;-67
2023/12/31 12:49:08;;;;;;;6.95;4.68;;;8.40;99.90;;;;;;6150911;23;20014;-66
2023/12/31 12:51:35;;;;;;;7.28;2.50;;;8.40;99.90;;;;;;6151457;23;20017;-66
2023/12/31 12:54:02;;;;;;;9.20;2.95;;;8.30;99.90;;;;;;6150840;23;20053;-67